sensor_id;sensor_type;location;lat;lon;timestamp;pressure;altitude;pressure_sealevel;temperature;humidity
84661;BME280;74889;52.240;20.902;2024-02-14T00:01:11;100560.85;;;6.34;73.64
84661;BME280;74889;52.240;20.902;2024-02-14T00:03:37;100562.54;;;6.33;73.68
84661;BME280;74889;52.240;20.902;2024-02-14T00:06:05;100563.52;;;6.32;73.67
84661;BME280;74889;52.240;20.902;2024-02-14T00:08:31;100569.41;;;6.32;73.79
84661;BME280;74889;52.240;20.902;2024-02-14T00:10:57;100566.52;;;6.30;73.63
84661;BME280;74889;52.240;20.902;2024-02-14T00:13:22;100572.58;;;6.27;73.83
84661;BME280;74889;52.240;20.902;2024-02-14T00:15:49;100578.84;;;6.27;73.68
84661;BME280;74889;52.240;20.902;2024-02-14T00:18:16;100579.54;;;6.25;73.84
84661;BME280;74889;52.240;20.902;2024-02-14T00:20:43;100579.91;;;6.22;73.88
84661;BME280;74889;52.240;20.902;2024-02-14T00:23:10;100581.96;;;6.21;73.87
84661;BME280;74889;52.240;20.902;2024-02-14T00:25:37;100582.78;;;6.19;74.01
84661;BME280;74889;52.240;20.902;2024-02-14T00:28:02;100586.14;;;6.17;73.96
84661;BME280;74889;52.240;20.902;2024-02-14T00:30:29;100585.63;;;6.15;74.20
84661;BME280;74889;52.240;20.902;2024-02-14T00:32:55;100582.79;;;6.12;74.17
84661;BME280;74889;52.240;20.902;2024-02-14T00:35:21;100584.67;;;6.11;74.22
84661;BME280;74889;52.240;20.902;2024-02-14T00:37:47;100586.41;;;6.09;74.41
84661;BME280;74889;52.240;20.902;2024-02-14T00:40:12;100589.71;;;6.07;74.34
84661;BME280;74889;52.240;20.902;2024-02-14T00:42:38;100589.02;;;6.07;74.42
84661;BME280;74889;52.240;20.902;2024-02-14T00:45:06;100589.66;;;6.08;74.62
84661;BME280;74889;52.240;20.902;2024-02-14T00:47:35;100588.45;;;6.08;74.65
84661;BME280;74889;52.240;20.902;2024-02-14T00:50:03;100588.13;;;6.07;74.70
84661;BME280;74889;52.240;20.902;2024-02-14T00:52:29;100587.97;;;6.07;74.71
84661;BME280;74889;52.240;20.902;2024-02-14T00:54:56;100588.80;;;6.05;74.80
84661;BME280;74889;52.240;20.902;2024-02-14T00:57:22;100589.06;;;6.04;74.81
84661;BME280;74889;52.240;20.902;2024-02-14T00:59:52;100588.63;;;6.03;74.85
84661;BME280;74889;52.240;20.902;2024-02-14T01:02:18;100590.36;;;6.01;75.03
84661;BME280;74889;52.240;20.902;2024-02-14T01:04:44;100588.36;;;5.99;74.96
84661;BME280;74889;52.240;20.902;2024-02-14T01:07:09;100588.28;;;5.98;74.99
84661;BME280;74889;52.240;20.902;2024-02-14T01:09:35;100595.55;;;5.96;75.01
84661;BME280;74889;52.240;20.902;2024-02-14T01:12:02;100595.54;;;5.94;75.06
84661;BME280;74889;52.240;20.902;2024-02-14T01:14:27;100598.00;;;5.92;75.13
84661;BME280;74889;52.240;20.902;2024-02-14T01:16:53;100598.04;;;5.89;75.13
84661;BME280;74889;52.240;20.902;2024-02-14T01:19:19;100598.42;;;5.86;75.19
84661;BME280;74889;52.240;20.902;2024-02-14T01:21:46;100598.94;;;5.84;75.26
84661;BME280;74889;52.240;20.902;2024-02-14T01:24:15;100599.80;;;5.81;75.18
84661;BME280;74889;52.240;20.902;2024-02-14T01:26:41;100604.09;;;5.78;75.29
84661;BME280;74889;52.240;20.902;2024-02-14T01:29:07;100599.85;;;5.75;75.45
84661;BME280;74889;52.240;20.902;2024-02-14T01:31:33;100601.10;;;5.73;75.38
84661;BME280;74889;52.240;20.902;2024-02-14T01:34:01;100601.08;;;5.71;75.53
84661;BME280;74889;52.240;20.902;2024-02-14T01:36:30;100602.43;;;5.67;75.52
84661;BME280;74889;52.240;20.902;2024-02-14T01:38:55;100599.88;;;5.65;75.51
84661;BME280;74889;52.240;20.902;2024-02-14T01:41:21;100602.33;;;5.63;75.60
84661;BME280;74889;52.240;20.902;2024-02-14T01:43:47;100604.33;;;5.60;75.62
84661;BME280;74889;52.240;20.902;2024-02-14T01:46:13;100600.13;;;5.57;75.62
84661;BME280;74889;52.240;20.902;2024-02-14T01:48:41;100597.27;;;5.52;75.64
84661;BME280;74889;52.240;20.902;2024-02-14T01:51:08;100602.16;;;5.49;75.68
84661;BME280;74889;52.240;20.902;2024-02-14T01:53:36;100598.20;;;5.45;75.81
84661;BME280;74889;52.240;20.902;2024-02-14T01:56:03;100598.45;;;5.41;75.87
84661;BME280;74889;52.240;20.902;2024-02-14T01:58:30;100600.61;;;5.38;75.91
84661;BME280;74889;52.240;20.902;2024-02-14T02:00:56;100604.52;;;5.36;75.99
84661;BME280;74889;52.240;20.902;2024-02-14T02:03:25;100607.26;;;5.32;75.93
84661;BME280;74889;52.240;20.902;2024-02-14T02:05:53;100606.64;;;5.28;76.09
84661;BME280;74889;52.240;20.902;2024-02-14T02:08:20;100607.79;;;5.25;76.07
84661;BME280;74889;52.240;20.902;2024-02-14T02:10:46;100606.45;;;5.21;76.13
84661;BME280;74889;52.240;20.902;2024-02-14T02:13:12;100610.95;;;5.18;76.19
84661;BME280;74889;52.240;20.902;2024-02-14T02:15:38;100610.40;;;5.16;76.17
84661;BME280;74889;52.240;20.902;2024-02-14T02:18:04;100610.41;;;5.13;76.27
84661;BME280;74889;52.240;20.902;2024-02-14T02:20:33;100609.33;;;5.11;76.24
84661;BME280;74889;52.240;20.902;2024-02-14T02:22:58;100608.64;;;5.08;76.36
84661;BME280;74889;52.240;20.902;2024-02-14T02:25:25;100608.49;;;5.05;76.46
84661;BME280;74889;52.240;20.902;2024-02-14T02:27:52;100612.16;;;5.03;76.49
84661;BME280;74889;52.240;20.902;2024-02-14T02:30:20;100618.13;;;5.01;76.46
84661;BME280;74889;52.240;20.902;2024-02-14T02:32:46;100620.35;;;5.00;76.47
84661;BME280;74889;52.240;20.902;2024-02-14T02:35:12;100620.15;;;4.98;76.57
84661;BME280;74889;52.240;20.902;2024-02-14T02:37:38;100620.63;;;4.96;76.56
84661;BME280;74889;52.240;20.902;2024-02-14T02:40:04;100616.67;;;4.94;76.57
84661;BME280;74889;52.240;20.902;2024-02-14T02:42:30;100618.56;;;4.93;76.73
84661;BME280;74889;52.240;20.902;2024-02-14T02:44:56;100619.73;;;4.91;76.78
84661;BME280;74889;52.240;20.902;2024-02-14T02:47:22;100622.51;;;4.89;76.68
84661;BME280;74889;52.240;20.902;2024-02-14T02:49:49;100622.51;;;4.87;76.87
84661;BME280;74889;52.240;20.902;2024-02-14T02:52:15;100625.29;;;4.85;76.80
84661;BME280;74889;52.240;20.902;2024-02-14T02:54:41;100627.02;;;4.83;76.84
84661;BME280;74889;52.240;20.902;2024-02-14T02:57:10;100628.17;;;4.82;76.91
84661;BME280;74889;52.240;20.902;2024-02-14T02:59:36;100628.66;;;4.80;76.94
84661;BME280;74889;52.240;20.902;2024-02-14T03:02:02;100629.44;;;4.79;76.97
84661;BME280;74889;52.240;20.902;2024-02-14T03:04:28;100628.14;;;4.77;77.06
84661;BME280;74889;52.240;20.902;2024-02-14T03:06:55;100628.02;;;4.76;77.04
84661;BME280;74889;52.240;20.902;2024-02-14T03:09:20;100632.17;;;4.75;77.07
84661;BME280;74889;52.240;20.902;2024-02-14T03:11:47;100638.29;;;4.74;77.04
84661;BME280;74889;52.240;20.902;2024-02-14T03:14:14;100639.70;;;4.72;77.25
84661;BME280;74889;52.240;20.902;2024-02-14T03:16:40;100643.73;;;4.70;77.18
84661;BME280;74889;52.240;20.902;2024-02-14T03:19:06;100646.50;;;4.68;77.29
84661;BME280;74889;52.240;20.902;2024-02-14T03:21:32;100650.72;;;4.66;77.33
84661;BME280;74889;52.240;20.902;2024-02-14T03:24:02;100653.94;;;4.63;77.18
84661;BME280;74889;52.240;20.902;2024-02-14T03:26:31;100655.54;;;4.60;77.38
84661;BME280;74889;52.240;20.902;2024-02-14T03:29:00;100657.65;;;4.57;77.34
84661;BME280;74889;52.240;20.902;2024-02-14T03:31:26;100659.04;;;4.56;77.45
84661;BME280;74889;52.240;20.902;2024-02-14T03:33:52;100660.95;;;4.53;77.49
84661;BME280;74889;52.240;20.902;2024-02-14T03:36:19;100659.10;;;4.52;77.54
84661;BME280;74889;52.240;20.902;2024-02-14T03:38:46;100658.85;;;4.50;77.56
84661;BME280;74889;52.240;20.902;2024-02-14T03:41:12;100660.18;;;4.49;77.68
84661;BME280;74889;52.240;20.902;2024-02-14T03:43:41;100665.92;;;4.48;77.66
84661;BME280;74889;52.240;20.902;2024-02-14T03:46:07;100659.00;;;4.46;77.64
84661;BME280;74889;52.240;20.902;2024-02-14T03:48:32;100661.45;;;4.43;77.72
84661;BME280;74889;52.240;20.902;2024-02-14T03:50:58;100661.86;;;4.43;77.71
84661;BME280;74889;52.240;20.902;2024-02-14T03:53:25;100662.12;;;4.41;77.84
84661;BME280;74889;52.240;20.902;2024-02-14T03:55:51;100661.01;;;4.40;77.94
84661;BME280;74889;52.240;20.902;2024-02-14T03:58:18;100662.89;;;4.38;77.80
84661;BME280;74889;52.240;20.902;2024-02-14T04:00:49;100664.86;;;4.37;78.05
84661;BME280;74889;52.240;20.902;2024-02-14T04:03:16;100666.07;;;4.35;78.10
84661;BME280;74889;52.240;20.902;2024-02-14T04:05:42;100667.34;;;4.35;78.05
84661;BME280;74889;52.240;20.902;2024-02-14T04:08:08;100670.42;;;4.34;78.10
84661;BME280;74889;52.240;20.902;2024-02-14T04:10:36;100670.84;;;4.33;78.13
84661;BME280;74889;52.240;20.902;2024-02-14T04:13:04;100669.70;;;4.31;78.25
84661;BME280;74889;52.240;20.902;2024-02-14T04:15:31;100670.27;;;4.31;78.19
84661;BME280;74889;52.240;20.902;2024-02-14T04:17:56;100677.18;;;4.31;78.35
84661;BME280;74889;52.240;20.902;2024-02-14T04:20:22;100674.96;;;4.29;78.30
84661;BME280;74889;52.240;20.902;2024-02-14T04:22:47;100676.64;;;4.28;78.36
84661;BME280;74889;52.240;20.902;2024-02-14T04:25:14;100677.35;;;4.28;78.49
84661;BME280;74889;52.240;20.902;2024-02-14T04:27:40;100675.15;;;4.27;78.51
84661;BME280;74889;52.240;20.902;2024-02-14T04:30:06;100675.30;;;4.27;78.58
84661;BME280;74889;52.240;20.902;2024-02-14T04:32:32;100679.27;;;4.26;78.63
84661;BME280;74889;52.240;20.902;2024-02-14T04:34:58;100681.88;;;4.27;78.60
84661;BME280;74889;52.240;20.902;2024-02-14T04:37:24;100680.79;;;4.27;78.70
84661;BME280;74889;52.240;20.902;2024-02-14T04:39:50;100677.73;;;4.27;78.78
84661;BME280;74889;52.240;20.902;2024-02-14T04:42:15;100681.34;;;4.27;78.82
84661;BME280;74889;52.240;20.902;2024-02-14T04:44:41;100685.77;;;4.27;78.67
84661;BME280;74889;52.240;20.902;2024-02-14T04:47:06;100687.58;;;4.26;78.86
84661;BME280;74889;52.240;20.902;2024-02-14T04:49:35;100689.36;;;4.26;78.82
84661;BME280;74889;52.240;20.902;2024-02-14T04:52:02;100690.96;;;4.26;78.97
84661;BME280;74889;52.240;20.902;2024-02-14T04:54:27;100690.94;;;4.26;79.04
84661;BME280;74889;52.240;20.902;2024-02-14T04:56:54;100693.09;;;4.26;79.05
84661;BME280;74889;52.240;20.902;2024-02-14T04:59:19;100694.95;;;4.24;78.94
84661;BME280;74889;52.240;20.902;2024-02-14T05:01:45;100696.95;;;4.24;78.99
84661;BME280;74889;52.240;20.902;2024-02-14T05:04:11;100694.79;;;4.21;79.04
84661;BME280;74889;52.240;20.902;2024-02-14T05:06:39;100697.45;;;4.19;79.16
84661;BME280;74889;52.240;20.902;2024-02-14T05:09:05;100696.15;;;4.17;79.10
84661;BME280;74889;52.240;20.902;2024-02-14T05:11:30;100696.77;;;4.15;79.13
84661;BME280;74889;52.240;20.902;2024-02-14T05:13:56;100699.65;;;4.14;79.18
84661;BME280;74889;52.240;20.902;2024-02-14T05:16:23;100705.85;;;4.14;79.19
84661;BME280;74889;52.240;20.902;2024-02-14T05:18:50;100701.98;;;4.14;79.27
84661;BME280;74889;52.240;20.902;2024-02-14T05:21:15;100704.97;;;4.14;79.32
84661;BME280;74889;52.240;20.902;2024-02-14T05:23:42;100701.43;;;4.14;79.40
84661;BME280;74889;52.240;20.902;2024-02-14T05:26:07;100703.77;;;4.13;79.48
84661;BME280;74889;52.240;20.902;2024-02-14T05:28:33;100706.11;;;4.13;79.26
84661;BME280;74889;52.240;20.902;2024-02-14T05:30:59;100707.73;;;4.12;79.29
84661;BME280;74889;52.240;20.902;2024-02-14T05:33:26;100711.11;;;4.12;79.41
84661;BME280;74889;52.240;20.902;2024-02-14T05:35:52;100709.04;;;4.11;79.30
84661;BME280;74889;52.240;20.902;2024-02-14T05:38:18;100717.55;;;4.11;79.36
84661;BME280;74889;52.240;20.902;2024-02-14T05:40:48;100714.96;;;4.10;79.32
84661;BME280;74889;52.240;20.902;2024-02-14T05:43:15;100715.16;;;4.10;79.39
84661;BME280;74889;52.240;20.902;2024-02-14T05:45:41;100717.23;;;4.08;79.55
84661;BME280;74889;52.240;20.902;2024-02-14T05:48:07;100717.02;;;4.06;79.47
84661;BME280;74889;52.240;20.902;2024-02-14T05:50:33;100718.89;;;4.01;79.30
84661;BME280;74889;52.240;20.902;2024-02-14T05:53:00;100720.77;;;4.00;79.35
84661;BME280;74889;52.240;20.902;2024-02-14T05:55:25;100722.27;;;3.99;79.39
84661;BME280;74889;52.240;20.902;2024-02-14T05:57:52;100724.73;;;3.96;79.59
84661;BME280;74889;52.240;20.902;2024-02-14T06:00:43;100726.84;;;3.93;79.31
84661;BME280;74889;52.240;20.902;2024-02-14T06:03:09;100720.91;;;3.89;79.66
84661;BME280;74889;52.240;20.902;2024-02-14T06:05:35;100733.35;;;3.91;79.59
84661;BME280;74889;52.240;20.902;2024-02-14T06:08:00;100729.85;;;3.90;79.45
84661;BME280;74889;52.240;20.902;2024-02-14T06:10:28;100733.92;;;3.90;79.55
84661;BME280;74889;52.240;20.902;2024-02-14T06:12:54;100733.70;;;3.91;79.68
84661;BME280;74889;52.240;20.902;2024-02-14T06:15:19;100740.02;;;3.92;79.58
84661;BME280;74889;52.240;20.902;2024-02-14T06:17:45;100739.15;;;3.92;79.73
84661;BME280;74889;52.240;20.902;2024-02-14T06:20:11;100741.43;;;3.95;79.78
84661;BME280;74889;52.240;20.902;2024-02-14T06:22:38;100745.91;;;3.96;79.61
84661;BME280;74889;52.240;20.902;2024-02-14T06:25:04;100746.16;;;3.98;79.82
84661;BME280;74889;52.240;20.902;2024-02-14T06:27:31;100748.66;;;4.01;79.83
84661;BME280;74889;52.240;20.902;2024-02-14T06:29:57;100750.70;;;4.02;79.63
84661;BME280;74889;52.240;20.902;2024-02-14T06:32:24;100750.68;;;4.05;79.78
84661;BME280;74889;52.240;20.902;2024-02-14T06:34:50;100742.05;;;4.07;79.95
84661;BME280;74889;52.240;20.902;2024-02-14T06:37:16;100741.67;;;4.10;79.99
84661;BME280;74889;52.240;20.902;2024-02-14T06:39:42;100739.39;;;4.13;79.78
84661;BME280;74889;52.240;20.902;2024-02-14T06:42:07;100740.98;;;4.15;79.81
84661;BME280;74889;52.240;20.902;2024-02-14T06:44:34;100741.61;;;4.17;79.84
84661;BME280;74889;52.240;20.902;2024-02-14T06:46:59;100745.67;;;4.20;79.91
84661;BME280;74889;52.240;20.902;2024-02-14T06:49:25;100742.67;;;4.23;79.68
84661;BME280;74889;52.240;20.902;2024-02-14T06:51:50;100747.81;;;4.25;79.74
84661;BME280;74889;52.240;20.902;2024-02-14T06:54:17;100745.02;;;4.28;79.77
84661;BME280;74889;52.240;20.902;2024-02-14T06:56:46;100745.94;;;4.30;79.92
84661;BME280;74889;52.240;20.902;2024-02-14T06:59:11;100751.36;;;4.33;79.92
84661;BME280;74889;52.240;20.902;2024-02-14T07:01:37;100751.53;;;4.36;79.79
84661;BME280;74889;52.240;20.902;2024-02-14T07:04:03;100755.06;;;4.39;79.78
84661;BME280;74889;52.240;20.902;2024-02-14T07:06:31;100758.10;;;4.41;79.78
84661;BME280;74889;52.240;20.902;2024-02-14T07:08:56;100755.80;;;4.44;79.76
84661;BME280;74889;52.240;20.902;2024-02-14T07:11:22;100756.47;;;4.47;79.92
84661;BME280;74889;52.240;20.902;2024-02-14T07:13:49;100753.99;;;4.50;79.84
84661;BME280;74889;52.240;20.902;2024-02-14T07:16:15;100752.77;;;4.52;79.69
84661;BME280;74889;52.240;20.902;2024-02-14T07:18:40;100754.14;;;4.55;79.70
84661;BME280;74889;52.240;20.902;2024-02-14T07:21:06;100758.96;;;4.57;79.66
84661;BME280;74889;52.240;20.902;2024-02-14T07:23:32;100759.94;;;4.61;79.60
84661;BME280;74889;52.240;20.902;2024-02-14T07:26:00;100758.35;;;4.64;79.50
84661;BME280;74889;52.240;20.902;2024-02-14T07:28:28;100758.37;;;4.66;79.67
84661;BME280;74889;52.240;20.902;2024-02-14T07:30:54;100756.91;;;4.70;79.68
84661;BME280;74889;52.240;20.902;2024-02-14T07:33:20;100758.42;;;4.73;79.55
84661;BME280;74889;52.240;20.902;2024-02-14T07:35:46;100759.31;;;4.78;79.48
84661;BME280;74889;52.240;20.902;2024-02-14T07:38:13;100759.30;;;4.84;79.57
84661;BME280;74889;52.240;20.902;2024-02-14T07:40:39;100764.09;;;4.89;79.52
84661;BME280;74889;52.240;20.902;2024-02-14T07:43:05;100765.76;;;4.93;79.62
84661;BME280;74889;52.240;20.902;2024-02-14T07:45:33;100763.13;;;4.98;79.63
84661;BME280;74889;52.240;20.902;2024-02-14T07:48:00;100767.86;;;5.04;79.57
84661;BME280;74889;52.240;20.902;2024-02-14T07:50:26;100766.55;;;5.11;79.63
84661;BME280;74889;52.240;20.902;2024-02-14T07:52:53;100767.52;;;5.17;79.65
84661;BME280;74889;52.240;20.902;2024-02-14T07:55:20;100767.86;;;5.25;79.60
84661;BME280;74889;52.240;20.902;2024-02-14T07:57:47;100767.52;;;5.32;79.72
84661;BME280;74889;52.240;20.902;2024-02-14T08:00:14;100766.04;;;5.38;79.52
84661;BME280;74889;52.240;20.902;2024-02-14T08:02:44;100765.49;;;5.46;79.46
84661;BME280;74889;52.240;20.902;2024-02-14T09:11:39;100768.70;;;8.20;75.97
84661;BME280;74889;52.240;20.902;2024-02-14T09:14:07;100764.17;;;8.25;75.70
84661;BME280;74889;52.240;20.902;2024-02-14T09:16:34;100761.45;;;8.33;75.49
84661;BME280;74889;52.240;20.902;2024-02-14T09:19:00;100760.05;;;8.39;75.49
84661;BME280;74889;52.240;20.902;2024-02-14T09:21:27;100757.10;;;8.45;75.17
84661;BME280;74889;52.240;20.902;2024-02-14T09:23:54;100753.46;;;8.50;75.05
84661;BME280;74889;52.240;20.902;2024-02-14T09:26:21;100753.81;;;8.54;74.85
84661;BME280;74889;52.240;20.902;2024-02-14T09:28:47;100753.11;;;8.58;74.68
84661;BME280;74889;52.240;20.902;2024-02-14T09:31:18;100752.90;;;8.63;74.56
84661;BME280;74889;52.240;20.902;2024-02-14T09:33:46;100753.96;;;8.67;74.28
84661;BME280;74889;52.240;20.902;2024-02-14T09:36:13;100754.52;;;8.71;73.87
84661;BME280;74889;52.240;20.902;2024-02-14T09:38:40;100753.07;;;8.76;73.85
84661;BME280;74889;52.240;20.902;2024-02-14T09:41:22;100752.47;;;8.79;73.62
84661;BME280;74889;52.240;20.902;2024-02-14T09:43:52;100751.56;;;8.83;73.53
84661;BME280;74889;52.240;20.902;2024-02-14T09:46:18;100750.38;;;8.87;73.27
84661;BME280;74889;52.240;20.902;2024-02-14T09:48:45;100754.55;;;8.90;72.52
84661;BME280;74889;52.240;20.902;2024-02-14T09:51:12;100755.92;;;8.93;72.16
84661;BME280;74889;52.240;20.902;2024-02-14T09:53:39;100751.51;;;8.96;72.15
84661;BME280;74889;52.240;20.902;2024-02-14T09:56:05;100751.61;;;8.99;72.16
84661;BME280;74889;52.240;20.902;2024-02-14T09:58:32;100747.70;;;9.03;72.06
84661;BME280;74889;52.240;20.902;2024-02-14T10:00:57;100749.91;;;9.07;71.87
84661;BME280;74889;52.240;20.902;2024-02-14T10:03:23;100745.90;;;9.10;71.86
84661;BME280;74889;52.240;20.902;2024-02-14T10:05:48;100748.73;;;9.15;71.69
84661;BME280;74889;52.240;20.902;2024-02-14T10:08:14;100745.48;;;9.17;71.37
84661;BME280;74889;52.240;20.902;2024-02-14T10:10:41;100743.54;;;9.21;70.97
84661;BME280;74889;52.240;20.902;2024-02-14T10:13:07;100746.27;;;9.25;70.81
84661;BME280;74889;52.240;20.902;2024-02-14T10:15:33;100746.23;;;9.27;70.70
84661;BME280;74889;52.240;20.902;2024-02-14T10:17:59;100744.69;;;9.28;70.48
84661;BME280;74889;52.240;20.902;2024-02-14T10:20:29;100747.24;;;9.30;70.03
84661;BME280;74889;52.240;20.902;2024-02-14T10:23:03;100746.31;;;9.30;69.76
84661;BME280;74889;52.240;20.902;2024-02-14T10:25:29;100743.21;;;9.31;69.39
84661;BME280;74889;52.240;20.902;2024-02-14T10:27:57;100741.29;;;9.31;69.20
84661;BME280;74889;52.240;20.902;2024-02-14T10:30:22;100737.16;;;9.31;68.93
84661;BME280;74889;52.240;20.902;2024-02-14T10:32:48;100737.77;;;9.30;68.90
84661;BME280;74889;52.240;20.902;2024-02-14T10:35:15;100738.55;;;9.29;68.69
84661;BME280;74889;52.240;20.902;2024-02-14T10:37:42;100736.41;;;9.29;68.51
84661;BME280;74889;52.240;20.902;2024-02-14T10:40:08;100730.64;;;9.26;68.24
84661;BME280;74889;52.240;20.902;2024-02-14T10:42:34;100725.41;;;9.25;67.79
84661;BME280;74889;52.240;20.902;2024-02-14T10:45:01;100727.84;;;9.23;67.62
84661;BME280;74889;52.240;20.902;2024-02-14T10:47:35;100725.93;;;9.22;67.38
84661;BME280;74889;52.240;20.902;2024-02-14T10:50:06;100720.21;;;9.23;66.87
84661;BME280;74889;52.240;20.902;2024-02-14T10:52:34;100717.48;;;9.25;67.21
84661;BME280;74889;52.240;20.902;2024-02-14T10:55:05;100717.95;;;9.28;67.13
84661;BME280;74889;52.240;20.902;2024-02-14T10:57:34;100718.46;;;9.31;67.15
84661;BME280;74889;52.240;20.902;2024-02-14T11:00:12;100719.39;;;9.32;66.84
84661;BME280;74889;52.240;20.902;2024-02-14T11:02:40;100718.35;;;9.32;66.58
84661;BME280;74889;52.240;20.902;2024-02-14T11:05:13;100714.54;;;9.33;66.20
84661;BME280;74889;52.240;20.902;2024-02-14T11:07:46;100711.05;;;9.32;65.57
84661;BME280;74889;52.240;20.902;2024-02-14T11:10:16;100709.64;;;9.31;65.61
84661;BME280;74889;52.240;20.902;2024-02-14T11:12:43;100705.16;;;9.32;65.58
84661;BME280;74889;52.240;20.902;2024-02-14T11:15:23;100702.60;;;9.33;65.11
84661;BME280;74889;52.240;20.902;2024-02-14T11:18:04;100701.56;;;9.34;65.21
84661;BME280;74889;52.240;20.902;2024-02-14T11:20:34;100701.70;;;9.34;64.85
84661;BME280;74889;52.240;20.902;2024-02-14T11:23:03;100703.13;;;9.32;63.79
84661;BME280;74889;52.240;20.902;2024-02-14T11:25:33;100700.92;;;9.31;64.00
84661;BME280;74889;52.240;20.902;2024-02-14T11:28:15;100701.39;;;9.30;64.04
84661;BME280;74889;52.240;20.902;2024-02-14T11:30:42;100701.33;;;9.29;63.93
84661;BME280;74889;52.240;20.902;2024-02-14T11:33:19;100700.72;;;9.28;63.26
84661;BME280;74889;52.240;20.902;2024-02-14T11:35:53;100697.27;;;9.28;63.13
84661;BME280;74889;52.240;20.902;2024-02-14T11:38:19;100694.86;;;9.29;63.14
84661;BME280;74889;52.240;20.902;2024-02-14T11:40:45;100696.74;;;9.30;63.28
84661;BME280;74889;52.240;20.902;2024-02-14T11:43:12;100691.91;;;9.32;63.33
84661;BME280;74889;52.240;20.902;2024-02-14T11:45:43;100688.72;;;9.34;63.39
84661;BME280;74889;52.240;20.902;2024-02-14T11:48:14;100685.69;;;9.36;63.50
84661;BME280;74889;52.240;20.902;2024-02-14T11:50:40;100689.92;;;9.39;63.48
84661;BME280;74889;52.240;20.902;2024-02-14T11:53:07;100684.89;;;9.41;63.27
84661;BME280;74889;52.240;20.902;2024-02-14T11:55:37;100682.70;;;9.41;62.80
84661;BME280;74889;52.240;20.902;2024-02-14T11:58:08;100680.97;;;9.43;62.88
84661;BME280;74889;52.240;20.902;2024-02-14T12:00:43;100681.64;;;9.43;62.67
84661;BME280;74889;52.240;20.902;2024-02-14T12:03:16;100676.31;;;9.43;62.50
84661;BME280;74889;52.240;20.902;2024-02-14T12:05:42;100674.06;;;9.43;62.51
84661;BME280;74889;52.240;20.902;2024-02-14T12:08:10;100674.70;;;9.43;62.46
84661;BME280;74889;52.240;20.902;2024-02-14T12:10:36;100675.20;;;9.44;62.25
84661;BME280;74889;52.240;20.902;2024-02-14T12:13:09;100679.30;;;9.44;61.86
84661;BME280;74889;52.240;20.902;2024-02-14T12:15:38;100670.98;;;9.39;61.69
84661;BME280;74889;52.240;20.902;2024-02-14T12:18:04;100672.73;;;9.41;61.58
84661;BME280;74889;52.240;20.902;2024-02-14T12:20:32;100673.73;;;9.42;61.83
84661;BME280;74889;52.240;20.902;2024-02-14T12:22:58;100676.81;;;9.44;61.72
84661;BME280;74889;52.240;20.902;2024-02-14T12:25:25;100674.69;;;9.45;61.51
84661;BME280;74889;52.240;20.902;2024-02-14T12:27:52;100672.81;;;9.48;61.73
84661;BME280;74889;52.240;20.902;2024-02-14T12:30:18;100666.95;;;9.48;61.53
84661;BME280;74889;52.240;20.902;2024-02-14T12:32:45;100669.73;;;9.49;61.42
84661;BME280;74889;52.240;20.902;2024-02-14T12:35:11;100667.91;;;9.49;61.18
84661;BME280;74889;52.240;20.902;2024-02-14T12:37:37;100664.79;;;9.50;61.10
84661;BME280;74889;52.240;20.902;2024-02-14T12:40:04;100665.67;;;9.50;61.08
84661;BME280;74889;52.240;20.902;2024-02-14T12:42:31;100665.19;;;9.50;60.39
84661;BME280;74889;52.240;20.902;2024-02-14T12:44:57;100666.59;;;9.48;59.94
84661;BME280;74889;52.240;20.902;2024-02-14T12:47:23;100661.20;;;9.47;60.26
84661;BME280;74889;52.240;20.902;2024-02-14T12:49:52;100661.75;;;9.46;59.92
84661;BME280;74889;52.240;20.902;2024-02-14T12:52:17;100665.80;;;9.47;59.83
84661;BME280;74889;52.240;20.902;2024-02-14T12:54:43;100668.02;;;9.48;59.97
84661;BME280;74889;52.240;20.902;2024-02-14T12:57:15;100663.01;;;9.48;59.31
84661;BME280;74889;52.240;20.902;2024-02-14T12:59:41;100662.52;;;9.46;58.86
84661;BME280;74889;52.240;20.902;2024-02-14T13:02:07;100663.23;;;9.44;58.71
84661;BME280;74889;52.240;20.902;2024-02-14T13:04:33;100659.64;;;9.40;58.07
84661;BME280;74889;52.240;20.902;2024-02-14T13:07:00;100663.35;;;9.38;57.85
84661;BME280;74889;52.240;20.902;2024-02-14T13:09:26;100658.81;;;9.37;58.37
84661;BME280;74889;52.240;20.902;2024-02-14T13:11:51;100662.81;;;9.38;58.66
84661;BME280;74889;52.240;20.902;2024-02-14T13:14:17;100664.59;;;9.38;58.47
84661;BME280;74889;52.240;20.902;2024-02-14T13:16:43;100661.08;;;9.40;58.54
84661;BME280;74889;52.240;20.902;2024-02-14T13:19:10;100664.42;;;9.43;58.99
84661;BME280;74889;52.240;20.902;2024-02-14T13:21:35;100664.00;;;9.45;59.14
84661;BME280;74889;52.240;20.902;2024-02-14T13:24:03;100665.55;;;9.48;59.00
84661;BME280;74889;52.240;20.902;2024-02-14T13:26:29;100668.58;;;9.50;59.15
84661;BME280;74889;52.240;20.902;2024-02-14T13:28:56;100663.65;;;9.51;58.82
84661;BME280;74889;52.240;20.902;2024-02-14T13:31:22;100660.86;;;9.48;58.15
84661;BME280;74889;52.240;20.902;2024-02-14T13:33:48;100663.31;;;9.43;56.97
84661;BME280;74889;52.240;20.902;2024-02-14T13:36:13;100660.28;;;9.39;57.13
84661;BME280;74889;52.240;20.902;2024-02-14T13:38:42;100663.96;;;9.37;57.24
84661;BME280;74889;52.240;20.902;2024-02-14T13:41:11;100664.46;;;9.36;57.45
84661;BME280;74889;52.240;20.902;2024-02-14T13:43:39;100660.54;;;9.36;57.55
84661;BME280;74889;52.240;20.902;2024-02-14T13:46:05;100661.02;;;9.37;57.70
84661;BME280;74889;52.240;20.902;2024-02-14T13:48:32;100659.83;;;9.36;57.08
84661;BME280;74889;52.240;20.902;2024-02-14T13:50:59;100653.02;;;9.34;56.73
84661;BME280;74889;52.240;20.902;2024-02-14T13:53:25;100656.87;;;9.33;56.82
84661;BME280;74889;52.240;20.902;2024-02-14T13:55:51;100658.66;;;9.33;56.56